Moonlight Serenade — A8RD2 — position and weather

sailwx.info

Track history (hours):
 
Tides and Currents Weather Stations Pressure Air Temp Water Temp Dewpoint Dewpoint Depression Visibility Wind Speed Wind Dir Waves Ship Positions

Moonlight Serenade

Last reported at 2017-Sep-07 06:50 UTC. Time now 2017-Sep-21 12:31 UTC.
Position N 32°17' W 125°29'.
Warning: this ship's position is 14 days out of date.

Length 172 m; draft 10.5 m.

Type: Ship. MMSI: 636014073.

Date/timePositionNaut miles runAvg speedWind from/ knotsBaromVisibWave heightAir tempDewpointWater temp
2017-Sep-07 06:50N 32°17' W 125°29'412.8
2017-Sep-07 06:30N 32°15' W 125°25'5912.9
2017-Sep-07 01:58N 31°39' W 124°30'913.0
2017-Sep-07 01:14N 31°33' W 124°21'312.9
2017-Sep-07 01:00N 31°31' W 124°19'1712.9
2017-Sep-06 23:39N 31°21' W 124°03'1212.7
2017-Sep-06 22:44N 31°14' W 123°52'1912.4
2017-Sep-06 21:13N 31°02' W 123°35'312.2
2017-Sep-06 20:59N 31°00' W 123°32'612.1
2017-Sep-06 20:30N 30°57' W 123°26'612.4
2017-Sep-06 20:00N 30°53' W 123°21'912.7
2017-Sep-06 19:20N 30°48' W 123°13'412.8
2017-Sep-06 19:00N 30°46' W 123°09'612.8
2017-Sep-06 18:30N 30°42' W 123°03'612.6
2017-Sep-06 17:59N 30°38' W 122°57'612.7
2017-Sep-06 17:30N 30°34' W 122°51'1112.7
2017-Sep-06 16:36N 30°27' W 122°41'112.7
2017-Sep-06 16:30N 30°26' W 122°40'  
Track history (hours):
 
Tides and Currents Weather Stations Pressure Air Temp Water Temp Dewpoint Dewpoint Depression Visibility Wind Speed Wind Dir Waves Ship Positions

Moonlight Serenade

Last reported at 2017-Sep-07 06:50 UTC. Time now 2017-Sep-21 12:31 UTC.
Position N 32°17' W 125°29'.
Warning: this ship's position is 14 days out of date.

Length 172 m; draft 10.5 m.

Type: Ship. MMSI: 636014073.

Date/timePositionNaut miles runAvg speedWind from/ knotsBaromVisibWave heightAir tempDewpointWater temp
2017-Sep-07 06:50N 32°17' W 125°29'412.8
2017-Sep-07 06:30N 32°15' W 125°25'5912.9
2017-Sep-07 01:58N 31°39' W 124°30'913.0
2017-Sep-07 01:14N 31°33' W 124°21'312.9
2017-Sep-07 01:00N 31°31' W 124°19'1712.9
2017-Sep-06 23:39N 31°21' W 124°03'1212.7
2017-Sep-06 22:44N 31°14' W 123°52'1912.4
2017-Sep-06 21:13N 31°02' W 123°35'312.2
2017-Sep-06 20:59N 31°00' W 123°32'612.1
2017-Sep-06 20:30N 30°57' W 123°26'612.4
2017-Sep-06 20:00N 30°53' W 123°21'912.7
2017-Sep-06 19:20N 30°48' W 123°13'412.8
2017-Sep-06 19:00N 30°46' W 123°09'612.8
2017-Sep-06 18:30N 30°42' W 123°03'612.6
2017-Sep-06 17:59N 30°38' W 122°57'612.7
2017-Sep-06 17:30N 30°34' W 122°51'1112.7
2017-Sep-06 16:36N 30°27' W 122°41'112.7
2017-Sep-06 16:30N 30°26' W 122°40'  

Dump ship's entire track history